createdAt,value
2019-02-05T00:00:59.260Z,1.67
2019-02-05T00:03:33.466Z,1.80
2019-02-05T00:06:05.855Z,1.77
2019-02-05T00:08:37.599Z,1.70
2019-02-05T00:11:08.515Z,1.57
2019-02-05T00:13:39.694Z,1.60
2019-02-05T00:16:11.459Z,1.70
2019-02-05T00:18:42.440Z,1.90
2019-02-05T00:21:13.548Z,1.67
2019-02-05T00:23:45.407Z,1.50
2019-02-05T00:26:17.303Z,1.73
2019-02-05T00:28:48.242Z,1.50
2019-02-05T00:31:19.614Z,1.53
2019-02-05T00:33:51.008Z,1.60
2019-02-05T00:36:24.426Z,1.73
2019-02-05T00:38:55.474Z,1.60
2019-02-05T00:41:26.106Z,1.70
2019-02-05T00:43:57.199Z,1.77
2019-02-05T00:46:28.210Z,1.60
2019-02-05T00:48:59.433Z,1.90
2019-02-05T00:51:30.412Z,1.70
2019-02-05T00:54:01.487Z,2.07
2019-02-05T00:56:32.725Z,1.60
2019-02-05T00:59:03.515Z,1.70
2019-02-05T01:01:34.504Z,2.00
2019-02-05T01:04:06.070Z,2.00
2019-02-05T01:06:36.812Z,2.10
2019-02-05T01:09:10.147Z,1.63
2019-02-05T01:11:41.226Z,2.00
2019-02-05T01:14:11.919Z,1.97
2019-02-05T01:16:42.615Z,2.13
2019-02-05T01:19:13.620Z,2.10
2019-02-05T01:21:44.492Z,2.50
2019-02-05T01:24:15.587Z,2.53
2019-02-05T01:26:46.271Z,2.30
2019-02-05T01:29:17.187Z,1.90
2019-02-05T01:31:48.427Z,2.40
2019-02-05T01:34:19.563Z,2.30
2019-02-05T01:36:50.198Z,2.97
2019-02-05T01:39:21.103Z,2.53
2019-02-05T01:41:51.907Z,3.50
2019-02-05T01:44:22.776Z,2.80
2019-02-05T01:46:53.860Z,3.10
2019-02-05T01:49:24.643Z,3.17
2019-02-05T01:51:56.094Z,2.97
2019-02-05T01:54:27.243Z,3.13
2019-02-05T01:56:58.157Z,2.43
2019-02-05T01:59:29.128Z,3.27
2019-02-05T02:01:59.945Z,3.13
2019-02-05T02:04:30.907Z,2.97
2019-02-05T02:07:01.820Z,3.57
2019-02-05T02:09:32.883Z,3.80
2019-02-05T02:12:03.767Z,3.13
2019-02-05T02:14:34.412Z,3.60
2019-02-05T02:24:58.320Z,3.80
2019-02-05T02:27:30.555Z,4.00
2019-02-05T02:30:01.381Z,4.40
2019-02-05T02:32:32.280Z,4.60
2019-02-05T02:35:03.603Z,4.23
2019-02-05T02:37:34.495Z,4.37
2019-02-05T02:40:05.928Z,4.63
2019-02-05T02:42:36.786Z,4.50
2019-02-05T02:45:08.470Z,5.00
2019-02-05T02:47:39.384Z,5.30
2019-02-05T02:50:11.979Z,5.07
2019-02-05T02:52:43.239Z,5.50
2019-02-05T02:55:14.179Z,4.83
2019-02-05T02:57:46.384Z,4.40
2019-02-05T03:00:19.024Z,5.33
2019-02-05T03:02:50.047Z,5.40
2019-02-05T03:05:22.565Z,5.50
2019-02-05T03:07:53.731Z,5.77
2019-02-05T03:10:28.824Z,5.57
2019-02-05T03:12:59.673Z,5.20
2019-02-05T03:15:30.891Z,4.97
2019-02-05T03:18:01.937Z,5.70
2019-02-05T03:20:32.969Z,6.43
2019-02-05T03:23:03.482Z,5.40
2019-02-05T03:25:34.223Z,5.33
2019-02-05T03:28:05.320Z,5.33
2019-02-05T03:30:35.891Z,5.70
2019-02-05T03:33:06.525Z,5.97
2019-02-05T03:35:37.047Z,6.60
2019-02-05T03:38:08.191Z,6.60
2019-02-05T03:41:10.132Z,6.27
2019-02-05T03:43:41.709Z,6.23
2019-02-05T03:46:14.305Z,6.67
2019-02-05T03:48:46.910Z,6.63
2019-02-05T03:51:41.803Z,6.63
2019-02-05T03:55:01.506Z,6.97
2019-02-05T03:58:28.033Z,6.90
2019-02-05T04:01:33.384Z,7.20
2019-02-05T04:04:24.321Z,7.00
2019-02-05T04:07:13.759Z,7.07
2019-02-05T04:10:14.251Z,6.70
2019-02-05T04:13:22.793Z,6.50
2019-02-05T04:16:44.652Z,7.37
2019-02-05T04:19:39.792Z,6.30
2019-02-05T04:22:47.772Z,7.10
2019-02-05T04:26:01.692Z,7.90
2019-02-05T04:29:08.392Z,8.00
2019-02-05T04:32:06.751Z,7.73
2019-02-05T04:34:56.036Z,8.33
2019-02-05T04:37:58.614Z,8.50
2019-02-05T04:41:06.045Z,8.03
2019-02-05T04:44:16.614Z,8.33
2019-02-05T04:47:00.539Z,8.63
2019-02-05T04:50:02.412Z,8.67
2019-02-05T04:53:22.999Z,8.07
2019-02-05T04:56:16.875Z,8.30
2019-02-05T04:59:20.685Z,9.07
2019-02-05T05:02:26.427Z,8.57
2019-02-05T05:05:30.405Z,9.10
2019-02-05T05:08:24.321Z,9.23
2019-02-05T05:10:55.052Z,9.57
2019-02-05T05:13:26.030Z,8.50
2019-02-05T05:15:57.279Z,10.27
2019-02-05T05:18:27.874Z,10.07
2019-02-05T05:20:58.712Z,9.90
2019-02-05T05:23:29.639Z,9.67
2019-02-05T05:26:00.479Z,9.70
2019-02-05T05:28:31.641Z,10.60
2019-02-05T05:31:02.338Z,9.87
2019-02-05T05:33:33.535Z,9.37
2019-02-05T05:36:04.342Z,10.03
2019-02-05T05:38:35.307Z,10.70
2019-02-05T05:41:05.907Z,10.57
2019-02-05T05:43:36.843Z,9.80
2019-02-05T05:46:07.755Z,9.63
2019-02-05T05:48:38.355Z,9.63
2019-02-05T05:51:08.961Z,10.53
2019-02-05T05:53:40.083Z,10.80
2019-02-05T05:56:10.751Z,11.30
2019-02-05T05:58:42.248Z,10.97
2019-02-05T06:01:13.459Z,10.93
2019-02-05T06:03:44.367Z,10.33
2019-02-05T06:06:15.203Z,10.97
2019-02-05T06:08:45.914Z,10.90
2019-02-05T06:11:16.686Z,11.10
2019-02-05T06:13:47.513Z,11.00
2019-02-05T06:16:18.871Z,10.90
2019-02-05T06:18:49.582Z,10.53
2019-02-05T06:21:20.302Z,10.40
2019-02-05T06:23:51.288Z,10.87
2019-02-05T06:26:22.800Z,10.53
2019-02-05T06:28:53.487Z,10.13
2019-02-05T06:31:24.020Z,10.50
2019-02-05T06:33:55.869Z,10.73
2019-02-05T06:36:27.007Z,10.60
2019-02-05T06:38:58.249Z,11.23
2019-02-05T06:41:29.083Z,10.87
2019-02-05T06:44:00.020Z,11.20
2019-02-05T06:46:31.091Z,11.10
2019-02-05T06:49:02.025Z,10.37
2019-02-05T06:51:33.263Z,11.40
2019-02-05T06:54:06.098Z,10.47
2019-02-05T06:56:37.039Z,11.23
2019-02-05T06:59:07.827Z,10.50
2019-02-05T07:01:38.667Z,10.70
2019-02-05T07:04:11.240Z,11.67
2019-02-05T07:06:43.366Z,10.17
2019-02-05T07:09:15.431Z,10.17
2019-02-05T07:11:46.258Z,10.83
2019-02-05T07:14:17.029Z,10.87
2019-02-05T07:16:48.070Z,10.57
2019-02-05T07:19:19.343Z,11.27
2019-02-05T07:21:50.675Z,9.83
2019-02-05T07:24:21.649Z,10.13
2019-02-05T07:26:52.222Z,10.23
2019-02-05T07:29:25.021Z,11.10
2019-02-05T07:31:55.347Z,10.47
2019-02-05T07:34:27.200Z,10.37
2019-02-05T07:36:58.505Z,10.10
2019-02-05T07:39:29.657Z,10.37
2019-02-05T07:42:00.227Z,9.97
2019-02-05T07:44:30.903Z,10.40
2019-02-05T07:47:03.407Z,10.20
2019-02-05T07:49:34.407Z,10.20
2019-02-05T07:52:05.010Z,10.33
2019-02-05T07:54:36.176Z,10.33
2019-02-05T07:57:07.349Z,10.63
2019-02-05T07:59:38.255Z,10.67
2019-02-05T08:02:09.379Z,9.93
2019-02-05T08:04:40.312Z,10.73
2019-02-05T08:07:11.299Z,10.23
2019-02-05T08:09:42.159Z,10.33
2019-02-05T08:12:14.839Z,11.40
2019-02-05T08:14:45.496Z,10.17
2019-02-05T08:17:16.022Z,10.13
2019-02-05T08:19:46.890Z,9.53
2019-02-05T08:22:17.694Z,10.53
2019-02-05T08:24:48.489Z,9.63
2019-02-05T08:27:19.234Z,9.80
2019-02-05T08:29:50.164Z,9.93
2019-02-05T08:32:21.183Z,10.57
2019-02-05T08:34:51.931Z,10.43
2019-02-05T08:37:22.844Z,9.80
2019-02-05T08:39:53.573Z,9.93
2019-02-05T08:42:24.708Z,9.53
2019-02-05T08:44:57.333Z,11.03
2019-02-05T08:47:27.956Z,9.63
2019-02-05T08:49:58.759Z,10.03
2019-02-05T08:52:29.302Z,9.87
2019-02-05T08:55:00.269Z,10.27
2019-02-05T08:57:30.994Z,9.63
2019-02-05T09:00:01.549Z,10.27
2019-02-05T09:02:33.954Z,10.47
2019-02-05T09:05:05.724Z,10.60
2019-02-05T09:07:36.458Z,10.03
2019-02-05T09:10:08.684Z,10.20
2019-02-05T09:12:39.799Z,9.97
2019-02-05T09:15:11.520Z,10.07
2019-02-05T09:17:42.215Z,9.27
2019-02-05T09:20:14.771Z,10.27
2019-02-05T09:22:45.743Z,10.73
2019-02-05T09:25:16.870Z,10.20
2019-02-05T09:27:47.884Z,9.33
2019-02-05T09:30:20.860Z,9.17
2019-02-05T09:32:52.998Z,9.20
2019-02-05T09:35:23.747Z,9.93
2019-02-05T09:37:57.695Z,9.93
2019-02-05T09:40:29.443Z,9.60
2019-02-05T09:43:00.460Z,9.10
2019-02-05T09:45:32.107Z,10.10
2019-02-05T09:48:03.056Z,9.40
2019-02-05T09:50:44.194Z,9.20
2019-02-05T09:53:07.487Z,9.37
2019-02-05T09:55:38.793Z,8.57
2019-02-05T09:58:09.919Z,9.57
2019-02-05T10:00:41.672Z,8.43
2019-02-05T10:03:12.471Z,8.90
2019-02-05T10:05:43.560Z,9.03
2019-02-05T10:08:14.270Z,9.63
2019-02-05T10:10:45.026Z,8.43
2019-02-05T10:13:16.183Z,8.63
2019-02-05T10:15:47.614Z,9.00
2019-02-05T10:18:18.479Z,8.90
2019-02-05T10:20:49.637Z,9.10
2019-02-05T10:23:20.794Z,8.53
2019-02-05T10:25:51.997Z,8.50
2019-02-05T10:28:22.887Z,8.47
2019-02-05T10:30:53.516Z,8.67
2019-02-05T10:33:24.267Z,9.23
2019-02-05T10:35:56.104Z,8.30
2019-02-05T10:38:27.212Z,8.67
2019-02-05T10:40:57.740Z,7.93
2019-02-05T10:43:29.473Z,7.63
2019-02-05T10:46:00.305Z,8.63
2019-02-05T10:48:30.816Z,8.10
2019-02-05T10:51:02.163Z,8.10
2019-02-05T10:53:32.795Z,7.37
2019-02-05T10:56:03.604Z,8.17
2019-02-05T10:58:34.796Z,7.40
2019-02-05T11:01:05.563Z,8.10
2019-02-05T11:03:36.478Z,7.97
2019-02-05T11:06:07.447Z,7.60
2019-02-05T11:08:38.367Z,7.63
2019-02-05T11:11:09.282Z,8.00
2019-02-05T11:13:40.276Z,8.57
2019-02-05T11:16:11.401Z,8.43
2019-02-05T11:18:42.423Z,8.23
2019-02-05T11:21:13.168Z,8.13
2019-02-05T11:23:43.772Z,8.10
2019-02-05T11:26:14.887Z,8.50
2019-02-05T11:28:45.906Z,8.30
2019-02-05T11:31:17.048Z,8.00
2019-02-05T11:33:47.807Z,8.17
2019-02-05T11:36:19.023Z,7.80
2019-02-05T11:38:49.540Z,7.60
2019-02-05T11:41:20.708Z,8.03
2019-02-05T11:43:51.715Z,7.50
2019-02-05T11:46:22.465Z,7.67
2019-02-05T11:48:53.127Z,7.43
2019-02-05T11:51:23.820Z,7.23
2019-02-05T11:53:55.185Z,7.10
2019-02-05T11:56:26.011Z,7.27
2019-02-05T11:58:56.542Z,6.87
2019-02-05T12:01:38.852Z,7.20
2019-02-05T12:04:07.112Z,6.77
2019-02-05T12:06:37.981Z,6.83
2019-02-05T12:09:22.005Z,6.90
2019-02-05T12:11:52.748Z,6.90
2019-02-05T12:14:23.596Z,6.63
2019-02-05T12:16:54.643Z,6.67
2019-02-05T12:19:25.667Z,6.27
2019-02-05T12:21:56.916Z,6.50
2019-02-05T12:24:28.107Z,6.10
2019-02-05T12:26:59.160Z,6.10
2019-02-05T12:29:29.885Z,6.47
2019-02-05T12:32:00.355Z,6.50
2019-02-05T12:34:30.968Z,6.30
2019-02-05T12:37:02.179Z,6.10
2019-02-05T12:39:33.294Z,6.63
2019-02-05T12:42:04.077Z,5.87
2019-02-05T12:44:35.295Z,6.10
2019-02-05T12:47:06.030Z,6.53
2019-02-05T12:49:36.935Z,6.60
2019-02-05T12:52:07.812Z,6.73
2019-02-05T12:54:39.027Z,6.30
2019-02-05T12:57:10.110Z,6.03
2019-02-05T12:59:41.253Z,6.37
2019-02-05T13:02:12.079Z,7.33
2019-02-05T13:04:42.951Z,6.73
2019-02-05T13:07:13.903Z,7.13
2019-02-05T13:09:44.992Z,7.70
2019-02-05T13:12:16.005Z,7.43
2019-02-05T13:14:46.478Z,8.13
2019-02-05T13:17:17.340Z,8.30
2019-02-05T13:19:48.385Z,8.03
2019-02-05T13:22:21.019Z,7.70
2019-02-05T13:24:52.007Z,8.03
2019-02-05T13:27:22.943Z,7.27
2019-02-05T13:29:57.288Z,8.23
2019-02-05T13:32:27.916Z,7.67
2019-02-05T13:34:59.139Z,7.80
2019-02-05T13:37:31.558Z,8.17
2019-02-05T13:40:03.091Z,7.07
2019-02-05T13:42:35.111Z,6.77
2019-02-05T13:45:07.316Z,5.80
2019-02-05T13:47:38.123Z,5.50
2019-02-05T13:50:12.750Z,5.40
2019-02-05T13:52:44.881Z,4.90
2019-02-05T13:55:18.959Z,4.50
2019-02-05T13:57:50.179Z,4.37
2019-02-05T14:00:26.187Z,4.57
2019-02-05T14:02:57.163Z,4.20
2019-02-05T14:05:28.875Z,4.20
2019-02-05T14:07:59.735Z,4.27
2019-02-05T14:10:32.026Z,4.57
2019-02-05T14:13:02.818Z,4.43
2019-02-05T14:15:35.159Z,3.93
2019-02-05T14:18:07.273Z,3.93
2019-02-05T14:20:38.520Z,4.30
2019-02-05T14:23:10.848Z,4.17
2019-02-05T14:25:42.851Z,4.10
2019-02-05T14:28:13.649Z,3.90
2019-02-05T14:31:04.429Z,4.23
2019-02-05T14:33:35.527Z,3.67
2019-02-05T14:36:06.871Z,4.00
2019-02-05T14:38:37.637Z,3.87
2019-02-05T14:41:08.650Z,4.00
2019-02-05T14:43:42.216Z,4.10
2019-02-05T14:46:13.425Z,3.70
2019-02-05T14:48:44.717Z,3.57
2019-02-05T14:51:15.372Z,3.47
2019-02-05T14:53:46.660Z,3.53
2019-02-05T14:56:17.803Z,3.03
2019-02-05T14:58:48.604Z,3.37
2019-02-05T15:01:22.343Z,3.40
2019-02-05T15:03:54.167Z,3.10
2019-02-05T15:06:25.743Z,2.97
2019-02-05T15:08:56.944Z,3.00
2019-02-05T15:11:28.215Z,2.90
2019-02-05T15:13:59.215Z,2.93
2019-02-05T15:16:29.888Z,2.67
2019-02-05T15:19:01.267Z,2.80
2019-02-05T15:21:31.869Z,2.60
2019-02-05T15:24:02.931Z,2.80
2019-02-05T15:26:33.526Z,2.80
2019-02-05T15:29:04.928Z,2.27
2019-02-05T15:31:35.832Z,2.70
2019-02-05T15:34:18.287Z,2.67
2019-02-05T15:36:51.205Z,2.70
2019-02-05T15:39:21.805Z,2.67
2019-02-05T15:41:52.592Z,2.60
2019-02-05T15:44:23.363Z,2.50
2019-02-05T15:46:54.342Z,2.57
2019-02-05T15:49:27.033Z,1.90
2019-02-05T15:51:59.032Z,2.20
2019-02-05T15:54:30.187Z,2.20
2019-02-05T15:57:00.788Z,2.40
2019-02-05T15:59:32.607Z,2.30
2019-02-05T16:02:06.289Z,2.20
2019-02-05T16:04:36.272Z,2.00
2019-02-05T16:07:07.160Z,1.80
2019-02-05T16:09:37.967Z,1.73
2019-02-05T16:12:08.676Z,2.03
2019-02-05T16:14:39.743Z,2.00
2019-02-05T16:17:10.811Z,1.80
2019-02-05T16:19:41.583Z,1.90
2019-02-05T16:22:12.808Z,1.80
2019-02-05T16:24:43.924Z,1.93
2019-02-05T16:27:14.531Z,2.23
2019-02-05T16:29:45.523Z,2.10
2019-02-05T16:32:17.863Z,2.10
2019-02-05T16:34:48.812Z,1.70
2019-02-05T16:37:21.161Z,1.70
2019-02-05T16:39:52.400Z,1.90
2019-02-05T16:42:23.515Z,1.60
2019-02-05T16:44:54.805Z,1.90
2019-02-05T16:47:25.534Z,1.70
2019-02-05T16:49:56.477Z,1.97
2019-02-05T16:52:32.371Z,1.40
2019-02-05T16:55:03.172Z,1.40
2019-02-05T16:57:33.867Z,1.37
2019-02-05T17:00:09.799Z,1.67
2019-02-05T17:02:40.385Z,1.43
2019-02-05T17:05:11.962Z,1.63
2019-02-05T17:07:43.235Z,1.37
2019-02-05T17:10:15.087Z,1.50
2019-02-05T17:12:45.867Z,1.43
2019-02-05T17:15:17.955Z,1.70
2019-02-05T17:17:49.031Z,1.73
2019-02-05T17:20:23.073Z,1.43
2019-02-05T17:22:53.882Z,1.30
2019-02-05T17:25:25.933Z,1.30
2019-02-05T17:27:57.715Z,1.57
2019-02-05T17:30:31.031Z,1.50
2019-02-05T17:33:01.723Z,1.77
2019-02-05T17:35:35.355Z,1.63
2019-02-05T17:38:06.699Z,1.50
2019-02-05T17:40:37.556Z,1.70
2019-02-05T17:43:08.516Z,1.53
2019-02-05T17:45:40.707Z,1.73
2019-02-05T17:48:14.203Z,1.43
2019-02-05T17:50:45.007Z,1.70
2019-02-05T17:53:15.714Z,1.80
2019-02-05T17:55:46.423Z,1.60
2019-02-05T17:58:17.663Z,1.70
2019-02-05T18:01:22.345Z,1.40
2019-02-05T18:03:53.543Z,1.40
2019-02-05T18:06:24.162Z,1.43
2019-02-05T18:08:55.103Z,1.47
2019-02-05T18:11:26.607Z,1.53
2019-02-05T18:13:57.505Z,1.70
2019-02-05T18:16:28.418Z,1.87
2019-02-05T18:18:59.272Z,1.70
2019-02-05T18:21:30.380Z,2.03
2019-02-05T18:24:01.620Z,2.00
2019-02-05T18:26:32.383Z,1.67
2019-02-05T18:29:03.167Z,1.70
2019-02-05T18:31:34.260Z,1.70
2019-02-05T18:34:05.147Z,1.87
2019-02-05T18:36:35.776Z,1.70
2019-02-05T18:39:09.511Z,1.90
2019-02-05T18:41:41.103Z,2.00
2019-02-05T18:44:11.602Z,1.70
2019-02-05T18:46:42.447Z,1.87
2019-02-05T18:49:13.448Z,1.93
2019-02-05T18:51:44.172Z,1.50
2019-02-05T18:54:14.664Z,1.67
2019-02-05T18:56:45.969Z,1.90
2019-02-05T18:59:16.764Z,1.93
2019-02-05T19:01:47.549Z,1.93
2019-02-05T19:04:19.777Z,1.90
2019-02-05T19:06:50.914Z,2.10
2019-02-05T19:09:21.883Z,1.93
2019-02-05T19:11:52.929Z,1.60
2019-02-05T19:14:23.983Z,1.97
2019-02-05T19:16:55.144Z,2.03
2019-02-05T19:19:25.947Z,2.30
2019-02-05T19:21:57.735Z,2.17
2019-02-05T19:24:46.094Z,2.57
2019-02-05T19:27:17.786Z,2.37
2019-02-05T19:29:48.884Z,2.37
2019-02-05T19:32:23.899Z,2.20
2019-02-05T19:34:54.769Z,2.53
2019-02-05T19:37:27.340Z,2.57
2019-02-05T19:40:05.443Z,2.00
2019-02-05T19:42:42.059Z,2.73
2019-02-05T19:45:38.335Z,2.60
2019-02-05T19:48:15.118Z,3.10
2019-02-05T19:50:46.632Z,2.93
2019-02-05T19:53:20.671Z,2.80
2019-02-05T19:55:51.632Z,2.77
2019-02-05T19:58:22.981Z,2.20
2019-02-05T20:00:56.893Z,2.43
2019-02-05T20:03:38.437Z,2.47
2019-02-05T20:06:03.636Z,2.60
2019-02-05T20:08:37.915Z,2.47
2019-02-05T20:11:09.318Z,2.50
2019-02-05T20:13:42.551Z,2.30
2019-02-05T20:16:19.214Z,2.87
2019-02-05T20:18:53.476Z,3.00
2019-02-05T20:21:26.128Z,2.90
2019-02-05T20:24:02.276Z,2.70
2019-02-05T20:26:37.318Z,2.77
2019-02-05T20:29:08.388Z,3.00
2019-02-05T20:31:39.484Z,2.77
2019-02-05T20:34:13.386Z,2.90
2019-02-05T20:36:45.271Z,2.67
2019-02-05T20:39:19.822Z,3.30
2019-02-05T20:41:54.516Z,2.83
2019-02-05T20:44:26.936Z,2.53
2019-02-05T20:47:01.321Z,2.60
2019-02-05T20:49:42.096Z,2.90
2019-02-05T20:52:13.283Z,2.40
2019-02-05T20:54:48.749Z,3.33
2019-02-05T20:57:27.580Z,3.23
2019-02-05T21:00:00.796Z,3.33
2019-02-05T21:02:33.227Z,3.40
2019-02-05T21:05:05.653Z,3.47
2019-02-05T21:07:36.535Z,2.87
2019-02-05T21:10:09.093Z,3.40
2019-02-05T21:12:41.080Z,2.93
2019-02-05T21:15:13.004Z,3.70
2019-02-05T21:17:44.027Z,3.60
2019-02-05T21:20:28.897Z,3.50
2019-02-05T21:22:53.120Z,3.17
2019-02-05T21:25:24.738Z,2.97
2019-02-05T21:27:58.126Z,3.47
2019-02-05T21:30:28.244Z,2.70
2019-02-05T21:32:59.547Z,2.83
2019-02-05T21:35:30.482Z,3.00
2019-02-05T21:38:01.511Z,2.83
2019-02-05T21:40:32.920Z,2.93
2019-02-05T21:43:03.527Z,3.10
2019-02-05T21:45:34.787Z,2.80
2019-02-05T21:48:05.896Z,2.90
2019-02-05T21:50:36.888Z,2.90
2019-02-05T21:53:07.583Z,3.03
2019-02-05T21:55:38.275Z,3.10
2019-02-05T21:58:08.950Z,2.60
2019-02-05T22:00:39.706Z,2.97
2019-02-05T22:03:10.708Z,3.23
2019-02-05T22:05:41.368Z,2.47
2019-02-05T22:08:12.679Z,3.17
2019-02-05T22:10:43.732Z,2.60
2019-02-05T22:13:14.479Z,2.30
2019-02-05T22:15:45.218Z,2.80
2019-02-05T22:18:15.934Z,2.93
2019-02-05T22:20:47.135Z,2.97
2019-02-05T22:23:18.149Z,2.63
2019-02-05T22:25:49.274Z,2.47
2019-02-05T22:28:20.675Z,2.50
2019-02-05T22:30:52.063Z,2.87
2019-02-05T22:33:23.143Z,2.70
2019-02-05T22:35:54.571Z,2.70
2019-02-05T22:38:25.903Z,2.93
2019-02-05T22:40:56.504Z,2.33
2019-02-05T22:43:27.756Z,2.83
2019-02-05T22:45:59.040Z,2.73
2019-02-05T22:48:30.211Z,2.70
2019-02-05T22:51:01.258Z,2.77
2019-02-05T22:53:32.387Z,2.37
2019-02-05T22:56:03.479Z,2.50
2019-02-05T22:58:34.228Z,2.80
2019-02-05T23:01:52.817Z,2.60
2019-02-05T23:05:03.749Z,2.37
2019-02-05T23:07:35.859Z,2.70
2019-02-05T23:10:32.035Z,2.20
2019-02-05T23:13:17.091Z,2.80
2019-02-05T23:15:50.207Z,2.60
2019-02-05T23:18:21.338Z,2.90
2019-02-05T23:20:54.055Z,2.93
2019-02-05T23:23:24.623Z,2.87
2019-02-05T23:25:55.710Z,3.03
2019-02-05T23:28:26.809Z,2.90
2019-02-05T23:30:57.587Z,2.80
2019-02-05T23:33:28.835Z,3.27
2019-02-05T23:35:59.703Z,2.70
2019-02-05T23:38:30.949Z,3.00
2019-02-05T23:41:01.588Z,3.30
2019-02-05T23:43:32.871Z,2.77
2019-02-05T23:46:04.626Z,3.07
2019-02-05T23:48:35.520Z,3.20
2019-02-05T23:51:06.413Z,3.20
2019-02-05T23:53:37.743Z,3.30
2019-02-05T23:56:09.101Z,3.30
2019-02-05T23:58:39.799Z,3.23
